Terminal Aerodrome Forecast
Issued by NWS

Home | Current Version | Previous Version | Text Only | Print | Product List | Glossary On
Versions: 1 2 3 4 5 6 7 8 9 10 11 12 13 14 15 16 17 18 19 20 21 22 23 24
000
FTUS45 KRIW 240500
TAFPNA
TAF
KPNA 240526Z 2406/2506 VRB06KT P6SM VCTS SCT110CB BKN140
      TEMPO 2406/2408 VRB25G35KT
     FM240800 VRB06KT P6SM SCT120
     FM241900 27015G25KT P6SM FEW120
     FM250130 29011KT P6SM SKC
      AMD LTD TO CLD VIS AND WIND=

USA.gov is the U.S. government's official web portal to all federal, state and local government web resources and services.